sensor_id;sensor_type;location;lat;lon;timestamp;noise_LAeq;noise_LA_min;noise_LA_max;noise_LA01;noise_LA95
58303;Laerm;44109;52.398;7.024;2023-08-30T00:02:31;46.40;30.84;56.23;;
58303;Laerm;44109;52.398;7.024;2023-08-30T00:05:01;46.29;31.02;56.53;;
58303;Laerm;44109;52.398;7.024;2023-08-30T00:07:29;46.53;30.73;56.35;;
58303;Laerm;44109;52.398;7.024;2023-08-30T00:09:58;46.35;30.63;56.19;;
58303;Laerm;44109;52.398;7.024;2023-08-30T00:12:26;46.38;30.96;56.40;;
58303;Laerm;44109;52.398;7.024;2023-08-30T00:14:55;46.18;30.69;56.11;;
58303;Laerm;44109;52.398;7.024;2023-08-30T00:17:22;46.52;30.96;56.24;;
58303;Laerm;44109;52.398;7.024;2023-08-30T00:19:50;46.35;31.15;56.38;;
58303;Laerm;44109;52.398;7.024;2023-08-30T00:22:20;46.16;30.73;56.49;;
58303;Laerm;44109;52.398;7.024;2023-08-30T00:24:48;46.09;30.57;56.49;;
58303;Laerm;44109;52.398;7.024;2023-08-30T00:27:15;46.15;30.59;57.41;;
58303;Laerm;44109;52.398;7.024;2023-08-30T00:29:43;46.07;30.56;56.10;;
58303;Laerm;44109;52.398;7.024;2023-08-30T00:32:12;46.07;30.85;56.58;;
58303;Laerm;44109;52.398;7.024;2023-08-30T00:34:40;46.43;30.72;56.24;;
58303;Laerm;44109;52.398;7.024;2023-08-30T00:37:07;46.09;30.57;56.14;;
58303;Laerm;44109;52.398;7.024;2023-08-30T00:39:37;46.02;30.87;56.30;;
58303;Laerm;44109;52.398;7.024;2023-08-30T00:42:05;46.06;31.10;56.29;;
58303;Laerm;44109;52.398;7.024;2023-08-30T00:44:33;46.01;30.88;56.10;;
58303;Laerm;44109;52.398;7.024;2023-08-30T00:47:02;46.12;30.97;56.41;;
58303;Laerm;44109;52.398;7.024;2023-08-30T00:49:32;46.22;30.61;55.95;;
58303;Laerm;44109;52.398;7.024;2023-08-30T00:52:03;45.80;30.63;55.63;;
58303;Laerm;44109;52.398;7.024;2023-08-30T00:54:32;45.85;30.55;56.09;;
58303;Laerm;44109;52.398;7.024;2023-08-30T00:57:01;45.89;30.87;56.02;;
58303;Laerm;44109;52.398;7.024;2023-08-30T00:59:32;45.81;30.88;55.87;;
58303;Laerm;44109;52.398;7.024;2023-08-30T01:02:02;45.90;30.89;55.92;;
58303;Laerm;44109;52.398;7.024;2023-08-30T01:04:31;45.90;31.29;57.12;;
58303;Laerm;44109;52.398;7.024;2023-08-30T01:06:59;46.01;30.80;55.79;;
58303;Laerm;44109;52.398;7.024;2023-08-30T01:09:26;45.72;30.59;55.73;;
58303;Laerm;44109;52.398;7.024;2023-08-30T01:12:00;45.58;30.95;56.24;;
58303;Laerm;44109;52.398;7.024;2023-08-30T01:14:38;45.64;30.95;55.89;;
58303;Laerm;44109;52.398;7.024;2023-08-30T01:17:10;45.79;31.20;55.69;;
58303;Laerm;44109;52.398;7.024;2023-08-30T01:19:52;45.51;30.97;55.69;;
58303;Laerm;44109;52.398;7.024;2023-08-30T01:22:37;45.12;31.07;55.66;;
58303;Laerm;44109;52.398;7.024;2023-08-30T01:25:20;45.18;30.57;55.54;;
58303;Laerm;44109;52.398;7.024;2023-08-30T01:27:55;45.16;31.01;55.74;;
58303;Laerm;44109;52.398;7.024;2023-08-30T01:30:25;45.39;31.03;55.55;;
58303;Laerm;44109;52.398;7.024;2023-08-30T01:32:54;45.52;31.44;55.40;;
58303;Laerm;44109;52.398;7.024;2023-08-30T01:35:23;45.40;30.79;55.69;;
58303;Laerm;44109;52.398;7.024;2023-08-30T01:37:52;45.58;31.22;55.46;;
58303;Laerm;44109;52.398;7.024;2023-08-30T01:40:20;45.41;31.00;55.59;;
58303;Laerm;44109;52.398;7.024;2023-08-30T01:42:49;45.29;30.93;55.78;;
58303;Laerm;44109;52.398;7.024;2023-08-30T01:45:21;45.18;31.11;55.47;;
58303;Laerm;44109;52.398;7.024;2023-08-30T01:47:52;44.88;30.99;55.42;;
58303;Laerm;44109;52.398;7.024;2023-08-30T01:50:21;45.19;31.25;55.50;;
58303;Laerm;44109;52.398;7.024;2023-08-30T01:52:50;45.20;30.99;55.66;;
58303;Laerm;44109;52.398;7.024;2023-08-30T01:55:21;45.37;31.04;57.15;;
58303;Laerm;44109;52.398;7.024;2023-08-30T01:57:49;45.54;30.89;55.72;;
58303;Laerm;44109;52.398;7.024;2023-08-30T02:00:19;45.10;31.27;56.29;;
58303;Laerm;44109;52.398;7.024;2023-08-30T02:02:48;45.07;31.04;55.56;;
58303;Laerm;44109;52.398;7.024;2023-08-30T02:05:16;45.05;30.67;55.47;;
58303;Laerm;44109;52.398;7.024;2023-08-30T02:07:53;44.88;30.92;55.49;;
58303;Laerm;44109;52.398;7.024;2023-08-30T02:10:25;45.39;32.10;55.77;;
58303;Laerm;44109;52.398;7.024;2023-08-30T02:12:57;44.74;31.45;55.52;;
58303;Laerm;44109;52.398;7.024;2023-08-30T02:15:27;44.58;31.07;55.51;;
58303;Laerm;44109;52.398;7.024;2023-08-30T02:17:57;44.50;30.71;55.21;;
58303;Laerm;44109;52.398;7.024;2023-08-30T02:20:25;45.38;31.19;55.57;;
58303;Laerm;44109;52.398;7.024;2023-08-30T02:22:52;45.29;31.47;55.28;;
58303;Laerm;44109;52.398;7.024;2023-08-30T02:25:22;44.72;30.61;55.15;;
58303;Laerm;44109;52.398;7.024;2023-08-30T02:27:50;44.56;31.01;55.03;;
58303;Laerm;44109;52.398;7.024;2023-08-30T02:30:18;44.86;30.83;57.42;;
58303;Laerm;44109;52.398;7.024;2023-08-30T02:32:47;44.49;31.32;54.90;;
58303;Laerm;44109;52.398;7.024;2023-08-30T02:35:15;44.67;30.95;55.26;;
58303;Laerm;44109;52.398;7.024;2023-08-30T02:37:42;45.05;31.47;55.95;;
58303;Laerm;44109;52.398;7.024;2023-08-30T02:40:11;44.71;30.85;54.71;;
58303;Laerm;44109;52.398;7.024;2023-08-30T02:42:39;44.32;30.79;54.89;;
58303;Laerm;44109;52.398;7.024;2023-08-30T02:45:08;45.00;31.06;54.72;;
58303;Laerm;44109;52.398;7.024;2023-08-30T02:47:36;44.38;30.89;55.24;;
58303;Laerm;44109;52.398;7.024;2023-08-30T02:50:06;44.38;30.72;55.57;;
58303;Laerm;44109;52.398;7.024;2023-08-30T02:52:33;44.68;30.81;55.10;;
58303;Laerm;44109;52.398;7.024;2023-08-30T02:55:01;45.29;31.33;55.31;;
58303;Laerm;44109;52.398;7.024;2023-08-30T02:57:29;44.94;31.60;55.09;;
58303;Laerm;44109;52.398;7.024;2023-08-30T02:59:57;44.48;31.32;54.90;;
58303;Laerm;44109;52.398;7.024;2023-08-30T03:02:24;44.78;31.23;56.84;;
58303;Laerm;44109;52.398;7.024;2023-08-30T03:04:52;44.85;31.38;54.81;;
58303;Laerm;44109;52.398;7.024;2023-08-30T03:07:21;44.80;31.07;55.00;;
58303;Laerm;44109;52.398;7.024;2023-08-30T03:09:52;44.93;31.36;54.88;;
58303;Laerm;44109;52.398;7.024;2023-08-30T03:12:20;45.29;31.72;54.77;;
58303;Laerm;44109;52.398;7.024;2023-08-30T03:14:48;44.42;30.86;54.86;;
58303;Laerm;44109;52.398;7.024;2023-08-30T03:17:15;44.68;31.66;54.74;;
58303;Laerm;44109;52.398;7.024;2023-08-30T03:19:43;45.17;31.49;54.89;;
58303;Laerm;44109;52.398;7.024;2023-08-30T03:22:11;44.78;31.43;54.68;;
58303;Laerm;44109;52.398;7.024;2023-08-30T03:24:40;45.39;33.12;54.91;;
58303;Laerm;44109;52.398;7.024;2023-08-30T03:27:07;45.11;31.69;54.81;;
58303;Laerm;44109;52.398;7.024;2023-08-30T03:29:35;45.48;33.03;54.93;;
58303;Laerm;44109;52.398;7.024;2023-08-30T03:32:03;45.44;31.84;55.54;;
58303;Laerm;44109;52.398;7.024;2023-08-30T03:34:31;46.40;35.21;55.41;;
58303;Laerm;44109;52.398;7.024;2023-08-30T03:36:58;45.21;32.73;55.78;;
58303;Laerm;44109;52.398;7.024;2023-08-30T03:39:26;45.21;31.59;55.47;;
58303;Laerm;44109;52.398;7.024;2023-08-30T03:41:55;45.03;31.74;54.90;;
58303;Laerm;44109;52.398;7.024;2023-08-30T03:44:22;44.71;31.36;54.98;;
58303;Laerm;44109;52.398;7.024;2023-08-30T03:46:50;45.50;31.70;56.22;;
58303;Laerm;44109;52.398;7.024;2023-08-30T03:49:18;45.55;32.37;55.40;;
58303;Laerm;44109;52.398;7.024;2023-08-30T03:51:45;46.84;31.49;55.33;;
58303;Laerm;44109;52.398;7.024;2023-08-30T03:54:13;45.42;31.52;55.68;;
58303;Laerm;44109;52.398;7.024;2023-08-30T03:56:42;45.55;32.59;55.13;;
58303;Laerm;44109;52.398;7.024;2023-08-30T03:59:12;45.41;32.22;55.97;;
58303;Laerm;44109;52.398;7.024;2023-08-30T04:01:39;46.55;34.30;60.20;;
58303;Laerm;44109;52.398;7.024;2023-08-30T04:04:07;46.38;33.37;56.07;;
58303;Laerm;44109;52.398;7.024;2023-08-30T04:06:34;45.97;32.22;57.07;;
58303;Laerm;44109;52.398;7.024;2023-08-30T04:09:02;46.93;33.46;56.64;;
58303;Laerm;44109;52.398;7.024;2023-08-30T04:11:30;46.63;33.34;56.44;;
58303;Laerm;44109;52.398;7.024;2023-08-30T04:13:57;47.30;36.37;56.17;;
58303;Laerm;44109;52.398;7.024;2023-08-30T04:16:26;46.53;33.49;56.59;;
58303;Laerm;44109;52.398;7.024;2023-08-30T04:18:54;47.61;37.34;63.46;;
58303;Laerm;44109;52.398;7.024;2023-08-30T04:21:22;46.47;35.07;55.42;;
58303;Laerm;44109;52.398;7.024;2023-08-30T04:23:49;47.88;36.23;55.83;;
58303;Laerm;44109;52.398;7.024;2023-08-30T04:26:17;46.89;35.83;61.06;;
58303;Laerm;44109;52.398;7.024;2023-08-30T04:28:44;47.96;36.16;63.56;;
58303;Laerm;44109;52.398;7.024;2023-08-30T04:31:12;48.38;38.90;63.48;;
58303;Laerm;44109;52.398;7.024;2023-08-30T04:33:41;46.87;36.58;57.06;;
58303;Laerm;44109;52.398;7.024;2023-08-30T04:36:09;46.82;36.66;56.65;;
58303;Laerm;44109;52.398;7.024;2023-08-30T04:38:36;46.31;34.22;64.70;;
58303;Laerm;44109;52.398;7.024;2023-08-30T04:41:04;48.20;37.22;61.97;;
58303;Laerm;44109;52.398;7.024;2023-08-30T04:43:31;48.28;38.01;60.24;;
58303;Laerm;44109;52.398;7.024;2023-08-30T04:45:59;47.73;36.01;60.44;;
58303;Laerm;44109;52.398;7.024;2023-08-30T04:48:27;48.62;39.94;63.52;;
58303;Laerm;44109;52.398;7.024;2023-08-30T04:51:04;47.79;38.57;56.69;;
58303;Laerm;44109;52.398;7.024;2023-08-30T04:53:31;47.98;36.86;64.27;;
58303;Laerm;44109;52.398;7.024;2023-08-30T04:55:59;48.66;38.81;68.36;;
58303;Laerm;44109;52.398;7.024;2023-08-30T04:58:27;58.90;36.34;78.11;;
58303;Laerm;44109;52.398;7.024;2023-08-30T05:00:56;50.03;38.28;68.34;;
58303;Laerm;44109;52.398;7.024;2023-08-30T05:03:24;46.77;35.92;61.46;;
58303;Laerm;44109;52.398;7.024;2023-08-30T05:05:51;47.53;37.45;57.80;;
58303;Laerm;44109;52.398;7.024;2023-08-30T05:08:20;48.35;37.74;58.68;;
58303;Laerm;44109;52.398;7.024;2023-08-30T05:10:48;47.92;37.23;57.54;;
58303;Laerm;44109;52.398;7.024;2023-08-30T05:13:16;48.67;37.46;65.34;;
58303;Laerm;44109;52.398;7.024;2023-08-30T05:15:44;48.22;37.63;57.24;;
58303;Laerm;44109;52.398;7.024;2023-08-30T05:18:11;55.45;40.07;76.81;;
58303;Laerm;44109;52.398;7.024;2023-08-30T05:20:39;48.55;39.97;60.07;;
58303;Laerm;44109;52.398;7.024;2023-08-30T05:23:06;47.55;36.80;56.61;;
58303;Laerm;44109;52.398;7.024;2023-08-30T05:25:35;47.92;38.88;61.84;;
58303;Laerm;44109;52.398;7.024;2023-08-30T05:28:03;48.23;37.00;59.54;;
58303;Laerm;44109;52.398;7.024;2023-08-30T05:30:31;48.93;38.30;63.64;;
58303;Laerm;44109;52.398;7.024;2023-08-30T05:32:59;48.43;39.60;61.74;;
58303;Laerm;44109;52.398;7.024;2023-08-30T05:35:26;48.55;38.62;58.95;;
58303;Laerm;44109;52.398;7.024;2023-08-30T05:37:54;48.12;36.57;57.76;;
58303;Laerm;44109;52.398;7.024;2023-08-30T05:40:22;47.92;38.85;56.67;;
58303;Laerm;44109;52.398;7.024;2023-08-30T05:42:52;48.15;37.62;59.74;;
58303;Laerm;44109;52.398;7.024;2023-08-30T05:45:21;48.86;41.00;62.29;;
58303;Laerm;44109;52.398;7.024;2023-08-30T05:47:48;47.86;37.74;61.50;;
58303;Laerm;44109;52.398;7.024;2023-08-30T05:50:16;48.20;37.84;61.42;;
58303;Laerm;44109;52.398;7.024;2023-08-30T05:52:44;47.64;37.38;59.52;;
58303;Laerm;44109;52.398;7.024;2023-08-30T05:55:11;48.67;38.22;63.64;;
58303;Laerm;44109;52.398;7.024;2023-08-30T05:57:39;49.44;39.24;60.93;;
58303;Laerm;44109;52.398;7.024;2023-08-30T06:00:10;49.32;39.28;61.85;;
58303;Laerm;44109;52.398;7.024;2023-08-30T06:02:39;48.92;38.60;61.42;;
58303;Laerm;44109;52.398;7.024;2023-08-30T06:05:08;49.37;38.09;64.12;;
58303;Laerm;44109;52.398;7.024;2023-08-30T06:07:36;51.29;39.71;61.20;;
58303;Laerm;44109;52.398;7.024;2023-08-30T06:10:04;50.88;40.13;63.37;;
58303;Laerm;44109;52.398;7.024;2023-08-30T06:12:32;48.39;38.75;60.45;;
58303;Laerm;44109;52.398;7.024;2023-08-30T06:15:00;48.15;38.43;56.93;;
58303;Laerm;44109;52.398;7.024;2023-08-30T06:17:29;47.99;38.28;64.53;;
58303;Laerm;44109;52.398;7.024;2023-08-30T06:19:56;49.30;39.94;63.00;;
58303;Laerm;44109;52.398;7.024;2023-08-30T06:22:24;48.81;38.02;65.95;;
58303;Laerm;44109;52.398;7.024;2023-08-30T06:24:52;48.33;37.49;57.45;;
58303;Laerm;44109;52.398;7.024;2023-08-30T06:27:19;48.97;38.27;64.27;;
58303;Laerm;44109;52.398;7.024;2023-08-30T06:29:47;50.55;37.56;75.34;;
58303;Laerm;44109;52.398;7.024;2023-08-30T06:32:15;49.49;38.77;65.96;;
58303;Laerm;44109;52.398;7.024;2023-08-30T06:34:44;49.18;39.74;58.30;;
58303;Laerm;44109;52.398;7.024;2023-08-30T06:37:12;48.81;38.94;65.89;;
58303;Laerm;44109;52.398;7.024;2023-08-30T06:39:39;48.62;37.98;57.95;;
58303;Laerm;44109;52.398;7.024;2023-08-30T06:42:07;49.32;38.76;61.10;;
58303;Laerm;44109;52.398;7.024;2023-08-30T06:44:35;50.07;38.43;67.54;;
58303;Laerm;44109;52.398;7.024;2023-08-30T06:47:03;48.94;37.14;66.95;;
58303;Laerm;44109;52.398;7.024;2023-08-30T06:49:31;48.30;36.56;58.47;;
58303;Laerm;44109;52.398;7.024;2023-08-30T06:51:59;48.35;36.57;60.86;;
58303;Laerm;44109;52.398;7.024;2023-08-30T06:54:32;47.92;37.35;59.60;;
58303;Laerm;44109;52.398;7.024;2023-08-30T06:57:00;48.49;38.34;62.87;;
58303;Laerm;44109;52.398;7.024;2023-08-30T06:59:28;48.61;38.44;59.48;;
58303;Laerm;44109;52.398;7.024;2023-08-30T07:01:56;48.74;37.44;62.19;;
58303;Laerm;44109;52.398;7.024;2023-08-30T07:04:24;48.19;37.06;59.48;;
58303;Laerm;44109;52.398;7.024;2023-08-30T07:06:52;48.81;38.24;63.09;;
58303;Laerm;44109;52.398;7.024;2023-08-30T07:09:21;49.00;38.09;63.61;;
58303;Laerm;44109;52.398;7.024;2023-08-30T07:11:55;52.34;37.57;76.89;;
58303;Laerm;44109;52.398;7.024;2023-08-30T07:14:22;49.36;37.19;70.53;;
58303;Laerm;44109;52.398;7.024;2023-08-30T07:16:50;48.75;35.26;67.15;;
58303;Laerm;44109;52.398;7.024;2023-08-30T07:19:17;48.11;35.26;62.38;;
58303;Laerm;44109;52.398;7.024;2023-08-30T07:21:45;48.27;37.07;57.94;;
58303;Laerm;44109;52.398;7.024;2023-08-30T07:24:13;49.29;36.72;62.56;;
58303;Laerm;44109;52.398;7.024;2023-08-30T07:26:42;48.50;37.79;58.32;;
58303;Laerm;44109;52.398;7.024;2023-08-30T07:29:09;50.12;38.45;66.80;;
58303;Laerm;44109;52.398;7.024;2023-08-30T07:31:37;49.50;38.40;61.23;;
58303;Laerm;44109;52.398;7.024;2023-08-30T07:34:04;50.63;37.75;64.29;;
58303;Laerm;44109;52.398;7.024;2023-08-30T07:36:32;49.64;38.21;63.12;;
58303;Laerm;44109;52.398;7.024;2023-08-30T07:38:59;48.07;35.46;57.87;;
58303;Laerm;44109;52.398;7.024;2023-08-30T07:41:27;48.40;36.90;63.57;;
58303;Laerm;44109;52.398;7.024;2023-08-30T07:43:56;48.66;36.71;61.58;;
58303;Laerm;44109;52.398;7.024;2023-08-30T07:46:24;48.33;36.22;59.84;;
58303;Laerm;44109;52.398;7.024;2023-08-30T07:48:52;49.39;37.86;67.68;;
58303;Laerm;44109;52.398;7.024;2023-08-30T07:51:20;50.12;37.02;73.44;;
58303;Laerm;44109;52.398;7.024;2023-08-30T07:53:47;49.59;39.05;64.30;;
58303;Laerm;44109;52.398;7.024;2023-08-30T07:56:15;49.21;37.87;64.58;;
58303;Laerm;44109;52.398;7.024;2023-08-30T07:58:42;50.84;40.27;65.56;;
58303;Laerm;44109;52.398;7.024;2023-08-30T08:01:11;48.73;39.10;58.10;;
58303;Laerm;44109;52.398;7.024;2023-08-30T08:03:39;50.04;38.55;60.83;;
58303;Laerm;44109;52.398;7.024;2023-08-30T08:06:08;50.37;40.10;58.49;;
58303;Laerm;44109;52.398;7.024;2023-08-30T08:08:35;49.70;36.29;63.49;;
58303;Laerm;44109;52.398;7.024;2023-08-30T08:11:03;50.17;40.36;60.61;;
58303;Laerm;44109;52.398;7.024;2023-08-30T08:13:31;51.22;39.10;62.89;;
58303;Laerm;44109;52.398;7.024;2023-08-30T08:15:58;49.91;38.78;69.34;;
58303;Laerm;44109;52.398;7.024;2023-08-30T08:18:27;49.60;37.21;58.88;;
58303;Laerm;44109;52.398;7.024;2023-08-30T08:20:55;50.39;37.61;65.13;;
58303;Laerm;44109;52.398;7.024;2023-08-30T08:23:22;49.97;38.77;60.32;;
58303;Laerm;44109;52.398;7.024;2023-08-30T08:25:57;49.59;38.16;61.07;;
58303;Laerm;44109;52.398;7.024;2023-08-30T08:28:25;51.24;38.32;64.29;;
58303;Laerm;44109;52.398;7.024;2023-08-30T08:30:53;49.54;36.25;60.50;;
58303;Laerm;44109;52.398;7.024;2023-08-30T08:33:20;49.69;39.99;59.66;;
58303;Laerm;44109;52.398;7.024;2023-08-30T08:35:50;50.47;38.59;70.50;;
58303;Laerm;44109;52.398;7.024;2023-08-30T08:38:18;49.81;40.24;58.33;;
58303;Laerm;44109;52.398;7.024;2023-08-30T08:40:46;49.04;38.59;58.41;;
58303;Laerm;44109;52.398;7.024;2023-08-30T08:43:15;48.88;37.91;63.26;;
58303;Laerm;44109;52.398;7.024;2023-08-30T08:45:45;49.99;41.63;69.32;;
58303;Laerm;44109;52.398;7.024;2023-08-30T08:48:14;49.78;39.62;60.40;;
58303;Laerm;44109;52.398;7.024;2023-08-30T08:50:43;49.51;39.58;63.46;;
58303;Laerm;44109;52.398;7.024;2023-08-30T08:53:14;49.88;39.50;70.43;;
58303;Laerm;44109;52.398;7.024;2023-08-30T08:55:44;50.06;37.94;69.56;;
58303;Laerm;44109;52.398;7.024;2023-08-30T08:58:14;49.34;39.06;68.23;;
58303;Laerm;44109;52.398;7.024;2023-08-30T09:00:43;49.25;39.47;58.65;;
58303;Laerm;44109;52.398;7.024;2023-08-30T09:03:11;50.31;40.84;72.62;;
58303;Laerm;44109;52.398;7.024;2023-08-30T09:05:39;49.43;39.84;70.12;;
58303;Laerm;44109;52.398;7.024;2023-08-30T09:08:10;49.41;40.07;67.10;;
58303;Laerm;44109;52.398;7.024;2023-08-30T09:10:41;49.48;40.18;61.49;;
58303;Laerm;44109;52.398;7.024;2023-08-30T09:13:08;49.90;41.79;63.02;;
58303;Laerm;44109;52.398;7.024;2023-08-30T09:15:36;50.01;40.38;61.44;;
58303;Laerm;44109;52.398;7.024;2023-08-30T09:18:04;52.69;44.77;76.21;;
58303;Laerm;44109;52.398;7.024;2023-08-30T09:20:32;51.81;44.49;66.49;;
58303;Laerm;44109;52.398;7.024;2023-08-30T09:22:59;52.75;45.58;71.30;;
58303;Laerm;44109;52.398;7.024;2023-08-30T09:25:28;53.41;43.59;75.78;;
58303;Laerm;44109;52.398;7.024;2023-08-30T09:28:00;56.53;45.01;77.74;;
58303;Laerm;44109;52.398;7.024;2023-08-30T09:30:28;60.23;51.06;85.58;;
58303;Laerm;44109;52.398;7.024;2023-08-30T09:33:01;61.72;51.11;88.25;;
58303;Laerm;44109;52.398;7.024;2023-08-30T09:35:30;58.94;47.85;85.91;;
58303;Laerm;44109;52.398;7.024;2023-08-30T09:37:57;59.53;45.21;92.69;;
58303;Laerm;44109;52.398;7.024;2023-08-30T09:40:25;52.73;43.54;77.15;;
58303;Laerm;44109;52.398;7.024;2023-08-30T09:42:53;52.37;41.65;75.80;;
58303;Laerm;44109;52.398;7.024;2023-08-30T09:45:23;55.69;40.53;89.14;;
58303;Laerm;44109;52.398;7.024;2023-08-30T09:47:52;57.55;45.40;91.42;;
58303;Laerm;44109;52.398;7.024;2023-08-30T09:50:22;64.47;48.03;96.82;;
58303;Laerm;44109;52.398;7.024;2023-08-30T09:52:50;64.59;48.24;93.57;;
58303;Laerm;44109;52.398;7.024;2023-08-30T09:55:19;72.17;50.47;100.38;;
58303;Laerm;44109;52.398;7.024;2023-08-30T09:57:48;66.60;48.32;96.29;;
58303;Laerm;44109;52.398;7.024;2023-08-30T10:00:17;66.91;46.80;96.41;;
58303;Laerm;44109;52.398;7.024;2023-08-30T10:02:47;69.57;47.21;98.92;;
58303;Laerm;44109;52.398;7.024;2023-08-30T10:05:16;68.54;44.10;100.56;;
58303;Laerm;44109;52.398;7.024;2023-08-30T10:07:44;66.08;42.66;98.71;;
58303;Laerm;44109;52.398;7.024;2023-08-30T10:10:13;64.55;40.11;97.96;;
58303;Laerm;44109;52.398;7.024;2023-08-30T10:12:43;55.86;39.37;87.14;;
58303;Laerm;44109;52.398;7.024;2023-08-30T10:15:13;54.68;41.54;83.03;;
58303;Laerm;44109;52.398;7.024;2023-08-30T10:17:46;65.04;46.39;96.83;;
58303;Laerm;44109;52.398;7.024;2023-08-30T10:20:16;64.19;42.03;96.29;;
58303;Laerm;44109;52.398;7.024;2023-08-30T10:22:44;64.06;42.69;92.58;;
58303;Laerm;44109;52.398;7.024;2023-08-30T10:25:19;69.03;39.01;101.98;;
58303;Laerm;44109;52.398;7.024;2023-08-30T10:27:49;64.84;39.92;97.18;;
58303;Laerm;44109;52.398;7.024;2023-08-30T10:30:20;58.01;40.50;93.17;;
58303;Laerm;44109;52.398;7.024;2023-08-30T10:32:50;51.62;39.59;75.02;;
58303;Laerm;44109;52.398;7.024;2023-08-30T10:35:19;51.12;39.30;78.86;;
58303;Laerm;44109;52.398;7.024;2023-08-30T10:37:54;63.98;38.91;99.64;;
58303;Laerm;44109;52.398;7.024;2023-08-30T10:40:22;56.59;41.14;77.48;;
58303;Laerm;44109;52.398;7.024;2023-08-30T10:42:59;59.75;38.04;92.86;;
58303;Laerm;44109;52.398;7.024;2023-08-30T10:45:27;52.62;40.43;80.55;;
58303;Laerm;44109;52.398;7.024;2023-08-30T10:47:59;57.92;41.52;90.27;;
58303;Laerm;44109;52.398;7.024;2023-08-30T10:50:29;60.27;41.81;92.00;;
58303;Laerm;44109;52.398;7.024;2023-08-30T10:52:57;67.73;40.44;101.81;;
58303;Laerm;44109;52.398;7.024;2023-08-30T10:55:26;70.07;43.39;101.86;;
58303;Laerm;44109;52.398;7.024;2023-08-30T10:58:02;73.74;43.52;101.79;;
58303;Laerm;44109;52.398;7.024;2023-08-30T11:00:31;76.78;45.60;105.61;;
58303;Laerm;44109;52.398;7.024;2023-08-30T11:03:01;73.21;45.48;101.84;;
58303;Laerm;44109;52.398;7.024;2023-08-30T11:05:29;71.78;43.80;101.33;;
58303;Laerm;44109;52.398;7.024;2023-08-30T11:07:57;72.98;44.43;102.15;;
58303;Laerm;44109;52.398;7.024;2023-08-30T11:10:25;70.82;44.53;100.79;;
58303;Laerm;44109;52.398;7.024;2023-08-30T11:12:55;70.93;41.77;103.47;;
58303;Laerm;44109;52.398;7.024;2023-08-30T11:15:26;66.78;42.90;99.97;;
58303;Laerm;44109;52.398;7.024;2023-08-30T11:18:04;63.89;42.78;94.64;;
58303;Laerm;44109;52.398;7.024;2023-08-30T11:20:32;64.67;42.35;100.13;;
58303;Laerm;44109;52.398;7.024;2023-08-30T11:23:02;66.17;42.57;100.06;;
58303;Laerm;44109;52.398;7.024;2023-08-30T11:25:30;68.99;43.94;102.15;;
58303;Laerm;44109;52.398;7.024;2023-08-30T11:28:02;65.62;42.12;98.17;;
58303;Laerm;44109;52.398;7.024;2023-08-30T11:30:30;58.49;42.01;92.59;;
58303;Laerm;44109;52.398;7.024;2023-08-30T11:32:57;71.85;44.47;100.91;;
58303;Laerm;44109;52.398;7.024;2023-08-30T11:35:26;67.36;42.54;100.12;;
58303;Laerm;44109;52.398;7.024;2023-08-30T11:37:54;70.42;44.59;100.12;;
58303;Laerm;44109;52.398;7.024;2023-08-30T11:40:22;67.84;43.05;99.58;;
58303;Laerm;44109;52.398;7.024;2023-08-30T11:42:50;69.39;42.36;99.27;;
58303;Laerm;44109;52.398;7.024;2023-08-30T11:45:18;66.52;42.32;97.72;;
58303;Laerm;44109;52.398;7.024;2023-08-30T11:47:46;64.57;44.74;96.60;;
58303;Laerm;44109;52.398;7.024;2023-08-30T11:50:14;61.86;40.63;96.29;;
58303;Laerm;44109;52.398;7.024;2023-08-30T11:52:44;69.69;40.55;104.30;;
58303;Laerm;44109;52.398;7.024;2023-08-30T11:55:12;67.15;42.17;101.51;;
58303;Laerm;44109;52.398;7.024;2023-08-30T11:57:43;67.80;40.83;100.57;;
58303;Laerm;44109;52.398;7.024;2023-08-30T12:00:13;58.38;42.36;93.06;;
58303;Laerm;44109;52.398;7.024;2023-08-30T12:02:41;57.05;41.54;89.47;;
58303;Laerm;44109;52.398;7.024;2023-08-30T12:05:11;59.81;40.62;93.00;;
58303;Laerm;44109;52.398;7.024;2023-08-30T12:07:40;50.73;40.00;78.19;;
58303;Laerm;44109;52.398;7.024;2023-08-30T12:10:10;54.72;39.60;88.81;;
58303;Laerm;44109;52.398;7.024;2023-08-30T12:12:45;52.10;39.35;84.03;;
58303;Laerm;44109;52.398;7.024;2023-08-30T12:15:14;49.70;38.97;72.02;;
58303;Laerm;44109;52.398;7.024;2023-08-30T12:17:43;51.25;42.41;79.66;;
58303;Laerm;44109;52.398;7.024;2023-08-30T12:20:17;52.12;41.92;79.85;;
58303;Laerm;44109;52.398;7.024;2023-08-30T12:22:46;50.08;40.27;66.36;;
58303;Laerm;44109;52.398;7.024;2023-08-30T12:25:20;59.53;40.47;92.59;;
58303;Laerm;44109;52.398;7.024;2023-08-30T12:27:49;50.64;40.63;65.47;;
58303;Laerm;44109;52.398;7.024;2023-08-30T12:30:17;49.51;37.71;73.30;;
58303;Laerm;44109;52.398;7.024;2023-08-30T12:32:46;50.04;41.53;73.10;;
58303;Laerm;44109;52.398;7.024;2023-08-30T12:35:14;50.43;41.17;66.93;;
58303;Laerm;44109;52.398;7.024;2023-08-30T12:37:42;54.45;41.31;84.85;;
58303;Laerm;44109;52.398;7.024;2023-08-30T12:40:11;49.72;40.14;63.00;;
58303;Laerm;44109;52.398;7.024;2023-08-30T12:42:41;50.34;40.39;62.90;;
58303;Laerm;44109;52.398;7.024;2023-08-30T12:45:09;49.45;40.07;62.99;;
58303;Laerm;44109;52.398;7.024;2023-08-30T12:47:37;49.24;39.96;58.41;;
58303;Laerm;44109;52.398;7.024;2023-08-30T12:50:05;50.52;39.97;59.38;;
58303;Laerm;44109;52.398;7.024;2023-08-30T12:52:33;50.01;39.07;61.31;;
58303;Laerm;44109;52.398;7.024;2023-08-30T12:55:01;51.68;41.49;68.40;;
58303;Laerm;44109;52.398;7.024;2023-08-30T12:57:28;50.70;39.93;72.65;;
58303;Laerm;44109;52.398;7.024;2023-08-30T12:59:57;50.23;40.77;66.01;;
58303;Laerm;44109;52.398;7.024;2023-08-30T13:02:25;50.05;41.26;58.63;;
58303;Laerm;44109;52.398;7.024;2023-08-30T13:04:52;50.17;40.88;59.39;;
58303;Laerm;44109;52.398;7.024;2023-08-30T13:07:20;50.13;41.74;62.73;;
58303;Laerm;44109;52.398;7.024;2023-08-30T13:09:48;51.45;42.20;58.90;;
58303;Laerm;44109;52.398;7.024;2023-08-30T13:12:15;49.65;39.07;58.34;;
58303;Laerm;44109;52.398;7.024;2023-08-30T13:14:43;50.39;41.07;68.56;;
58303;Laerm;44109;52.398;7.024;2023-08-30T13:17:12;50.60;41.34;64.59;;
58303;Laerm;44109;52.398;7.024;2023-08-30T13:19:39;50.56;41.94;60.26;;
58303;Laerm;44109;52.398;7.024;2023-08-30T13:22:07;51.65;41.64;63.17;;
58303;Laerm;44109;52.398;7.024;2023-08-30T13:24:36;51.69;39.92;66.86;;
58303;Laerm;44109;52.398;7.024;2023-08-30T13:27:04;50.29;41.02;64.25;;
58303;Laerm;44109;52.398;7.024;2023-08-30T13:29:32;50.61;40.66;73.92;;
58303;Laerm;44109;52.398;7.024;2023-08-30T13:31:59;50.33;40.23;69.15;;
58303;Laerm;44109;52.398;7.024;2023-08-30T13:34:28;50.45;38.59;58.74;;
58303;Laerm;44109;52.398;7.024;2023-08-30T13:36:55;50.32;39.19;59.64;;
58303;Laerm;44109;52.398;7.024;2023-08-30T13:39:23;50.00;38.66;69.19;;
58303;Laerm;44109;52.398;7.024;2023-08-30T13:41:50;49.49;40.60;60.55;;
58303;Laerm;44109;52.398;7.024;2023-08-30T13:44:18;49.31;40.22;68.06;;
58303;Laerm;44109;52.398;7.024;2023-08-30T13:46:46;48.93;40.18;57.52;;
58303;Laerm;44109;52.398;7.024;2023-08-30T13:49:15;57.24;40.94;92.75;;
58303;Laerm;44109;52.398;7.024;2023-08-30T13:51:45;48.28;40.16;57.26;;
58303;Laerm;44109;52.398;7.024;2023-08-30T13:54:13;49.62;40.54;65.23;;